Time,TemperatureF,DewpointF,PressureIn,WindDirection,WindDirectionDegrees,WindSpeedMPH,WindSpeedGustMPH,Humidity,HourlyPrecipIn,Conditions,Clouds,dailyrainin,SoftwareType,DateUTC
2013-08-27 00:02:00,49.6,45.9,29.96,NNW,340,3.0,3.0,87,0.00,,---,0.01,VWS V14.01,2013-08-27 06:02:00,
2013-08-27 00:07:00,49.4,45.7,29.96,NNW,340,3.0,4.0,87,0.00,,---,0.00,VWS V14.01,2013-08-27 06:07:00,
2013-08-27 00:12:00,49.1,45.4,29.96,NNW,340,5.0,5.0,87,0.00,,---,0.00,VWS V14.01,2013-08-27 06:12:00,
2013-08-27 00:17:00,49.1,46.0,29.97,NNW,340,4.0,5.0,89,0.00,,---,0.00,VWS V14.01,2013-08-27 06:17:00,
2013-08-27 00:22:00,49.2,46.1,29.96,NNW,340,4.0,5.0,89,0.00,,---,0.00,VWS V14.01,2013-08-27 06:22:00,
2013-08-27 00:27:00,49.4,46.3,29.96,NNW,340,7.0,7.0,89,0.00,,---,0.00,VWS V14.01,2013-08-27 06:27:00,
2013-08-27 00:32:00,49.4,46.0,29.96,NNW,340,6.0,7.0,88,0.00,,---,0.00,VWS V14.01,2013-08-27 06:32:00,
2013-08-27 00:37:00,49.4,46.0,29.97,NNW,340,0.0,0.0,88,0.00,,---,0.00,VWS V14.01,2013-08-27 06:37:00,
2013-08-27 00:42:00,49.4,46.0,29.97,NNW,340,0.0,0.0,88,0.00,,---,0.00,VWS V14.01,2013-08-27 06:42:00,
2013-08-27 00:47:00,49.1,45.4,29.97,NNW,340,3.0,7.0,87,0.00,,---,0.00,VWS V14.01,2013-08-27 06:47:00,
2013-08-27 00:52:00,48.9,45.5,29.97,NNW,340,0.0,0.0,88,0.00,,---,0.00,VWS V14.01,2013-08-27 06:52:00,
2013-08-27 00:57:00,48.6,45.5,29.97,NNW,340,0.0,0.0,89,0.00,,---,0.00,VWS V14.01,2013-08-27 06:57:00,
2013-08-27 01:02:00,48.4,45.0,29.97,NNW,340,5.0,5.0,88,0.00,,---,0.00,VWS V14.01,2013-08-27 07:02:00,
2013-08-27 01:07:00,48.3,45.5,29.97,NNW,340,0.0,0.0,90,0.00,,---,0.00,VWS V14.01,2013-08-27 07:07:00,
2013-08-27 01:12:00,48.2,45.4,29.97,NNW,340,0.0,0.0,90,0.00,,---,0.00,VWS V14.01,2013-08-27 07:12:00,
2013-08-27 01:17:00,47.8,44.7,29.97,NNW,340,0.0,0.0,89,0.00,,---,0.00,VWS V14.01,2013-08-27 07:17:00,
2013-08-27 01:22:00,47.6,44.8,29.97,NNW,340,0.0,0.0,90,0.00,,---,0.00,VWS V14.01,2013-08-27 07:22:00,
2013-08-27 01:27:00,47.4,44.3,29.98,NNW,340,0.0,0.0,89,0.00,,---,0.00,VWS V14.01,2013-08-27 07:27:00,
2013-08-27 01:32:00,47.1,44.0,29.97,NNW,340,4.0,4.0,89,0.00,,---,0.00,VWS V14.01,2013-08-27 07:32:00,
2013-08-27 01:37:00,46.7,43.9,29.98,NNW,340,5.0,6.0,90,0.00,,---,0.00,VWS V14.01,2013-08-27 07:37:00,
2013-08-27 01:42:00,46.4,43.6,29.98,NNW,340,5.0,6.0,90,0.00,,---,0.00,VWS V14.01,2013-08-27 07:42:00,
2013-08-27 01:47:00,46.3,43.8,29.97,NNW,340,5.0,5.0,91,0.00,,---,0.00,VWS V14.01,2013-08-27 07:47:00,
2013-08-27 01:52:00,46.2,43.7,29.97,NNW,340,3.0,3.0,91,0.00,,---,0.00,VWS V14.01,2013-08-27 07:52:00,
2013-08-27 01:57:00,46.4,44.2,29.98,NNW,340,1.0,1.0,92,0.00,,---,0.00,VWS V14.01,2013-08-27 07:57:00,
2013-08-27 02:02:00,46.4,44.2,29.98,NNW,340,2.0,3.0,92,0.00,,---,0.00,VWS V14.01,2013-08-27 08:02:00,
2013-08-27 02:07:00,46.3,43.8,29.97,NNW,340,0.0,0.0,91,0.00,,---,0.00,VWS V14.01,2013-08-27 08:07:00,
2013-08-27 02:12:00,46.0,43.5,29.98,NNW,340,0.0,0.0,91,0.00,,---,0.00,VWS V14.01,2013-08-27 08:12:00,
2013-08-27 02:17:00,45.8,43.3,29.98,NNW,340,3.0,4.0,91,0.00,,---,0.00,VWS V14.01,2013-08-27 08:17:00,
2013-08-27 02:22:00,45.6,43.4,29.98,NNW,340,7.0,7.0,92,0.00,,---,0.00,VWS V14.01,2013-08-27 08:22:00,
2013-08-27 02:27:00,45.8,43.6,29.97,NNW,340,5.0,6.0,92,0.00,,---,0.00,VWS V14.01,2013-08-27 08:27:00,
2013-08-27 02:32:00,46.1,43.9,29.97,NNW,340,3.0,3.0,92,0.00,,---,0.00,VWS V14.01,2013-08-27 08:32:00,
2013-08-27 02:37:00,46.2,43.7,29.98,NNW,340,1.0,2.0,91,0.00,,---,0.00,VWS V14.01,2013-08-27 08:37:00,
2013-08-27 02:42:00,46.1,43.6,29.98,NNW,340,3.0,4.0,91,0.00,,---,0.00,VWS V14.01,2013-08-27 08:42:00,
2013-08-27 02:47:00,46.0,43.5,29.97,NNW,340,7.0,7.0,91,0.00,,---,0.00,VWS V14.01,2013-08-27 08:47:00,
2013-08-27 02:52:00,46.0,43.5,29.98,NNW,338,3.0,8.0,91,0.00,,---,0.00,VWS V14.01,2013-08-27 08:52:00,
2013-08-27 02:57:00,46.0,43.5,29.98,NNW,339,1.0,3.0,91,0.00,,---,0.00,VWS V14.01,2013-08-27 08:57:00,
2013-08-27 03:03:00,45.8,43.3,29.98,NNW,339,3.0,5.0,91,0.00,,---,0.00,VWS V14.01,2013-08-27 09:03:00,
2013-08-27 03:08:00,45.6,43.1,29.97,NNW,339,4.0,4.0,91,0.00,,---,0.00,VWS V14.01,2013-08-27 09:08:00,
2013-08-27 03:13:00,45.4,42.9,29.97,NNW,339,4.0,5.0,91,0.00,,---,0.00,VWS V14.01,2013-08-27 09:13:00,
2013-08-27 03:18:00,45.2,42.7,29.97,NNW,339,0.0,0.0,91,0.00,,---,0.00,VWS V14.01,2013-08-27 09:18:00,
2013-08-27 03:23:00,45.4,43.2,29.98,NNW,339,0.0,0.0,92,0.00,,---,0.00,VWS V14.01,2013-08-27 09:23:00,
2013-08-27 03:28:00,45.3,43.1,29.98,NNW,339,3.0,4.0,92,0.00,,---,0.00,VWS V14.01,2013-08-27 09:28:00,
2013-08-27 03:33:00,45.1,42.9,29.98,NNW,339,3.0,3.0,92,0.00,,---,0.00,VWS V14.01,2013-08-27 09:33:00,
2013-08-27 03:38:00,45.0,42.8,29.98,NNW,339,4.0,4.0,92,0.00,,---,0.00,VWS V14.01,2013-08-27 09:38:00,
2013-08-27 03:43:00,44.9,42.7,29.98,NNW,339,1.0,2.0,92,0.00,,---,0.00,VWS V14.01,2013-08-27 09:43:00,
2013-08-27 03:48:00,44.5,42.3,29.98,NNW,339,0.0,0.0,92,0.00,,---,0.00,VWS V14.01,2013-08-27 09:48:00,
2013-08-27 03:53:00,44.3,42.1,29.98,NNW,339,0.0,0.0,92,0.00,,---,0.00,VWS V14.01,2013-08-27 09:53:00,
2013-08-27 03:58:00,44.2,41.7,29.98,NNW,339,0.0,0.0,91,0.00,,---,0.00,VWS V14.01,2013-08-27 09:58:00,
2013-08-27 04:03:00,44.1,41.9,29.98,NNW,339,0.0,0.0,92,0.00,,---,0.00,VWS V14.01,2013-08-27 10:03:00,
2013-08-27 04:08:00,44.1,42.2,29.98,NNW,339,0.0,0.0,93,0.00,,---,0.00,VWS V14.01,2013-08-27 10:08:00,
2013-08-27 04:13:00,44.1,42.2,29.98,NNW,339,0.0,0.0,93,0.00,,---,0.00,VWS V14.01,2013-08-27 10:13:00,
2013-08-27 04:18:00,44.2,42.3,29.99,NNW,339,3.0,4.0,93,0.00,,---,0.00,VWS V14.01,2013-08-27 10:18:00,
2013-08-27 04:23:00,43.6,41.4,29.99,NNW,339,3.0,3.0,92,0.00,,---,0.00,VWS V14.01,2013-08-27 10:23:00,
2013-08-27 04:28:00,43.2,41.0,29.99,NNW,339,3.0,3.0,92,0.00,,---,0.00,VWS V14.01,2013-08-27 10:28:00,
2013-08-27 04:33:00,43.4,41.8,29.99,NNW,339,0.0,0.0,94,0.00,,---,0.00,VWS V14.01,2013-08-27 10:33:00,
2013-08-27 04:38:00,43.4,41.8,29.99,NNW,339,0.0,2.0,94,0.00,,---,0.00,VWS V14.01,2013-08-27 10:38:00,
2013-08-27 04:43:00,43.4,41.8,29.99,NNW,339,0.0,0.0,94,0.00,,---,0.00,VWS V14.01,2013-08-27 10:43:00,
2013-08-27 04:48:00,43.3,41.4,29.99,NNW,339,0.0,0.0,93,0.00,,---,0.00,VWS V14.01,2013-08-27 10:48:00,
2013-08-27 04:53:00,43.3,41.7,29.99,NNW,339,0.0,0.0,94,0.00,,---,0.00,VWS V14.01,2013-08-27 10:53:00,
2013-08-27 04:58:00,43.4,41.8,29.99,NNW,339,0.0,0.0,94,0.00,,---,0.00,VWS V14.01,2013-08-27 10:58:00,
2013-08-27 05:03:00,43.4,41.8,30.00,NNW,339,0.0,0.0,94,0.00,,---,0.00,VWS V14.01,2013-08-27 11:03:00,
2013-08-27 05:08:00,43.6,42.0,30.00,NNW,339,0.0,0.0,94,0.00,,---,0.00,VWS V14.01,2013-08-27 11:08:00,
2013-08-27 05:13:00,43.3,41.7,30.00,NNW,339,2.0,2.0,94,0.00,,---,0.00,VWS V14.01,2013-08-27 11:13:00,
2013-08-27 05:18:00,42.8,41.2,30.00,NNW,339,0.0,0.0,94,0.00,,---,0.00,VWS V14.01,2013-08-27 11:18:00,
2013-08-27 05:23:00,42.8,41.2,30.00,NNW,339,0.0,0.0,94,0.00,,---,0.00,VWS V14.01,2013-08-27 11:23:00,
2013-08-27 05:28:00,42.9,41.3,30.00,NNW,339,0.0,0.0,94,0.00,,---,0.00,VWS V14.01,2013-08-27 11:28:00,
2013-08-27 05:33:00,42.9,41.3,30.00,NNW,339,0.0,0.0,94,0.00,,---,0.00,VWS V14.01,2013-08-27 11:33:00,
2013-08-27 05:38:00,42.8,41.2,30.00,NNW,339,0.0,0.0,94,0.00,,---,0.00,VWS V14.01,2013-08-27 11:38:00,
2013-08-27 05:43:00,42.9,41.6,30.00,NNW,339,3.0,3.0,95,0.00,,---,0.00,VWS V14.01,2013-08-27 11:43:00,
2013-08-27 05:48:00,42.9,41.3,30.00,NNW,339,0.0,0.0,94,0.00,,---,0.00,VWS V14.01,2013-08-27 11:48:00,
2013-08-27 05:53:00,42.8,41.5,30.00,NNW,339,4.0,5.0,95,0.00,,---,0.00,VWS V14.01,2013-08-27 11:53:00,
2013-08-27 05:58:00,42.7,41.4,30.00,NNW,339,3.0,4.0,95,0.00,,---,0.00,VWS V14.01,2013-08-27 11:58:00,
2013-08-27 06:03:00,42.5,40.9,30.00,NNW,339,0.0,0.0,94,0.00,,---,0.00,VWS V14.01,2013-08-27 12:03:00,
2013-08-27 06:08:00,42.8,41.5,30.00,NNW,339,3.0,4.0,95,0.00,,---,0.00,VWS V14.01,2013-08-27 12:08:00,
2013-08-27 06:13:00,42.9,41.6,30.00,NNW,339,0.0,2.0,95,0.00,,---,0.00,VWS V14.01,2013-08-27 12:13:00,
2013-08-27 06:18:00,42.5,40.9,30.00,NNW,339,1.0,2.0,94,0.00,,---,0.00,VWS V14.01,2013-08-27 12:18:00,
2013-08-27 06:24:00,42.6,41.3,30.00,SW,226,3.0,3.0,95,0.00,,---,0.00,VWS V14.01,2013-08-27 12:24:00,
2013-08-27 06:29:00,42.7,41.4,30.00,WSW,238,0.0,0.0,95,0.00,,---,0.00,VWS V14.01,2013-08-27 12:29:00,
2013-08-27 06:34:00,42.8,41.5,30.00,WSW,238,0.0,0.0,95,0.00,,---,0.00,VWS V14.01,2013-08-27 12:34:00,
2013-08-27 06:39:00,42.7,41.4,30.00,WSW,238,0.0,0.0,95,0.00,,---,0.00,VWS V14.01,2013-08-27 12:39:00,
2013-08-27 06:44:00,42.5,41.2,30.00,WSW,238,2.0,2.0,95,0.00,,---,0.00,VWS V14.01,2013-08-27 12:44:00,
2013-08-27 06:49:00,42.5,41.2,30.01,WSW,238,0.0,0.0,95,0.00,,---,0.00,VWS V14.01,2013-08-27 12:49:00,
2013-08-27 06:54:00,42.3,41.0,30.01,East,89,0.0,0.0,95,0.00,,---,0.00,VWS V14.01,2013-08-27 12:54:00,
2013-08-27 06:59:00,42.3,41.0,30.01,East,89,0.0,0.0,95,0.00,,---,0.00,VWS V14.01,2013-08-27 12:59:00,
2013-08-27 07:04:00,42.1,40.8,30.01,East,89,0.0,0.0,95,0.00,,---,0.00,VWS V14.01,2013-08-27 13:04:00,
2013-08-27 07:09:00,42.1,40.8,30.01,East,89,0.0,0.0,95,0.00,,---,0.00,VWS V14.01,2013-08-27 13:09:00,
2013-08-27 07:14:00,42.0,40.7,30.01,East,89,2.0,2.0,95,0.00,,---,0.00,VWS V14.01,2013-08-27 13:14:00,
2013-08-27 07:19:00,42.0,40.7,30.01,East,89,2.0,2.0,95,0.00,,---,0.00,VWS V14.01,2013-08-27 13:19:00,
2013-08-27 07:24:00,42.1,40.8,30.01,East,89,0.0,0.0,95,0.00,,---,0.00,VWS V14.01,2013-08-27 13:24:00,
2013-08-27 07:29:00,42.1,40.8,30.01,East,89,0.0,0.0,95,0.00,,---,0.00,VWS V14.01,2013-08-27 13:29:00,
2013-08-27 07:34:00,42.1,40.8,30.01,East,89,0.0,0.0,95,0.00,,---,0.00,VWS V14.01,2013-08-27 13:34:00,
2013-08-27 07:39:00,42.1,40.8,30.02,East,89,0.0,0.0,95,0.00,,---,0.00,VWS V14.01,2013-08-27 13:39:00,
2013-08-27 07:44:00,42.1,40.8,30.01,East,89,0.0,0.0,95,0.00,,---,0.00,VWS V14.01,2013-08-27 13:44:00,
2013-08-27 07:49:00,42.0,40.7,30.02,East,89,0.0,0.0,95,0.00,,---,0.00,VWS V14.01,2013-08-27 13:49:00,
2013-08-27 07:54:00,42.1,40.8,30.02,East,89,0.0,0.0,95,0.00,,---,0.00,VWS V14.01,2013-08-27 13:54:00,
2013-08-27 07:59:00,42.2,40.9,30.02,East,89,0.0,0.0,95,0.00,,---,0.00,VWS V14.01,2013-08-27 13:59:00,
2013-08-27 08:04:00,42.2,40.9,30.02,East,89,0.0,0.0,95,0.00,,---,0.00,VWS V14.01,2013-08-27 14:04:00,
2013-08-27 08:09:00,42.4,41.3,30.02,East,89,0.0,0.0,96,0.00,,---,0.00,VWS V14.01,2013-08-27 14:09:00,
2013-08-27 08:14:00,42.8,41.7,30.02,East,89,0.0,0.0,96,0.00,,---,0.00,VWS V14.01,2013-08-27 14:14:00,
2013-08-27 08:19:00,43.5,42.4,30.02,East,89,0.0,0.0,96,0.00,,---,0.00,VWS V14.01,2013-08-27 14:19:00,
2013-08-27 08:24:00,44.7,43.9,30.02,East,89,0.0,0.0,97,0.00,,---,0.00,VWS V14.01,2013-08-27 14:24:00,
2013-08-27 08:29:00,45.8,45.0,30.02,East,89,0.0,0.0,97,0.00,,---,0.00,VWS V14.01,2013-08-27 14:29:00,
2013-08-27 08:34:00,46.7,45.9,30.02,East,89,1.0,1.0,97,0.00,,---,0.00,VWS V14.01,2013-08-27 14:34:00,
2013-08-27 08:39:00,47.5,46.7,30.02,East,89,0.0,0.0,97,0.00,,---,0.00,VWS V14.01,2013-08-27 14:39:00,
2013-08-27 08:44:00,48.8,48.0,30.02,East,89,0.0,0.0,97,0.00,,---,0.00,VWS V14.01,2013-08-27 14:44:00,
2013-08-27 08:49:00,50.7,48.8,30.01,East,89,0.0,0.0,93,0.00,,---,0.00,VWS V14.01,2013-08-27 14:49:00,
2013-08-27 08:54:00,52.1,49.0,30.01,East,89,0.0,0.0,89,0.00,,---,0.00,VWS V14.01,2013-08-27 14:54:00,
2013-08-27 08:59:00,53.0,49.2,30.01,East,89,0.0,0.0,87,0.00,,---,0.00,VWS V14.01,2013-08-27 14:59:00,
2013-08-27 09:05:00,53.9,49.8,30.01,East,89,0.0,0.0,86,0.00,,---,0.00,VWS V14.01,2013-08-27 15:05:00,
2013-08-27 09:10:00,54.6,48.9,30.01,East,89,0.0,0.0,81,0.00,,---,0.00,VWS V14.01,2013-08-27 15:10:00,
2013-08-27 09:15:00,55.1,49.0,30.01,East,89,0.0,0.0,80,0.00,,---,0.00,VWS V14.01,2013-08-27 15:15:00,
2013-08-27 09:20:00,56.0,50.3,30.01,East,89,0.0,0.0,81,0.00,,---,0.00,VWS V14.01,2013-08-27 15:20:00,
2013-08-27 09:25:00,56.8,50.4,30.01,East,89,1.0,1.0,79,0.00,,---,0.00,VWS V14.01,2013-08-27 15:25:00,
2013-08-27 09:30:00,57.3,50.2,30.01,East,89,0.0,0.0,77,0.00,,---,0.00,VWS V14.01,2013-08-27 15:30:00,
2013-08-27 09:35:00,57.4,50.6,30.01,East,89,1.0,3.0,78,0.00,,---,0.00,VWS V14.01,2013-08-27 15:35:00,
2013-08-27 09:40:00,57.7,50.5,30.01,East,89,1.0,1.0,77,0.00,,---,0.00,VWS V14.01,2013-08-27 15:40:00,
2013-08-27 09:45:00,58.1,49.9,30.00,East,89,0.0,0.0,74,0.00,,---,0.00,VWS V14.01,2013-08-27 15:45:00,
2013-08-27 09:50:00,59.5,51.6,30.00,East,89,0.0,0.0,75,0.00,,---,0.00,VWS V14.01,2013-08-27 15:50:00,
2013-08-27 09:55:00,60.0,51.0,30.00,SSE,167,2.0,3.0,72,0.00,,---,0.00,VWS V14.01,2013-08-27 15:55:00,
2013-08-27 10:00:00,60.5,51.1,30.00,SSE,167,0.0,1.0,71,0.00,,---,0.00,VWS V14.01,2013-08-27 16:00:00,
2013-08-27 10:05:00,61.3,51.5,30.00,SSE,167,1.0,1.0,70,0.00,,---,0.00,VWS V14.01,2013-08-27 16:05:00,
2013-08-27 10:10:00,61.9,51.2,30.00,SSE,167,1.0,1.0,68,0.00,,---,0.00,VWS V14.01,2013-08-27 16:10:00,
2013-08-27 10:15:00,62.3,51.2,30.00,SSE,154,1.0,2.0,67,0.00,,---,0.00,VWS V14.01,2013-08-27 16:15:00,
2013-08-27 10:20:00,62.7,52.0,29.99,South,170,4.0,4.0,68,0.00,,---,0.00,VWS V14.01,2013-08-27 16:20:00,
2013-08-27 10:25:00,63.1,52.0,30.00,SE,144,4.0,4.0,67,0.00,,---,0.00,VWS V14.01,2013-08-27 16:25:00,
2013-08-27 10:30:00,63.9,51.9,29.99,SE,142,2.0,4.0,65,0.00,,---,0.00,VWS V14.01,2013-08-27 16:30:00,
2013-08-27 10:35:00,64.6,52.6,29.99,SE,136,0.0,0.0,65,0.00,,---,0.00,VWS V14.01,2013-08-27 16:35:00,
2013-08-27 10:40:00,65.5,50.8,29.99,SE,136,0.0,1.0,59,0.00,,---,0.00,VWS V14.01,2013-08-27 16:40:00,
2013-08-27 10:45:00,65.4,49.8,29.99,SE,136,1.0,1.0,57,0.00,,---,0.00,VWS V14.01,2013-08-27 16:45:00,
2013-08-27 10:50:00,67.2,53.3,29.98,SE,126,3.0,5.0,61,0.00,,---,0.00,VWS V14.01,2013-08-27 16:50:00,
2013-08-27 10:55:00,66.7,51.0,29.99,South,171,0.0,2.0,57,0.00,,---,0.00,VWS V14.01,2013-08-27 16:55:00,
2013-08-27 11:00:00,67.0,51.3,29.98,SSE,152,7.0,8.0,57,0.00,,---,0.00,VWS V14.01,2013-08-27 17:00:00,
2013-08-27 11:05:00,67.7,51.5,29.98,SSE,161,0.0,0.0,56,0.00,,---,0.00,VWS V14.01,2013-08-27 17:05:00,
2013-08-27 11:10:00,68.0,50.2,29.97,ESE,106,0.0,1.0,53,0.00,,---,0.00,VWS V14.01,2013-08-27 17:10:00,
2013-08-27 11:15:00,68.8,50.5,29.97,SE,134,5.0,5.0,52,0.00,,---,0.00,VWS V14.01,2013-08-27 17:15:00,
2013-08-27 11:20:00,68.9,49.5,29.97,SE,134,2.0,2.0,50,0.00,,---,0.00,VWS V14.01,2013-08-27 17:20:00,
2013-08-27 11:25:00,69.3,47.7,29.97,SSE,156,3.0,4.0,46,0.00,,---,0.00,VWS V14.01,2013-08-27 17:25:00,
2013-08-27 11:30:00,69.9,49.3,29.97,SE,146,7.0,10.0,48,0.00,,---,0.00,VWS V14.01,2013-08-27 17:30:00,
2013-08-27 11:35:00,69.8,48.7,29.96,SSE,156,0.0,3.0,47,0.00,,---,0.00,VWS V14.01,2013-08-27 17:35:00,
2013-08-27 11:40:00,70.3,49.7,29.96,SE,128,6.0,6.0,48,0.00,,---,0.00,VWS V14.01,2013-08-27 17:40:00,
2013-08-27 11:45:00,70.4,48.1,29.96,SE,143,0.0,2.0,45,0.00,,---,0.00,VWS V14.01,2013-08-27 17:45:00,
2013-08-27 11:50:00,71.7,52.1,29.96,SE,139,4.0,6.0,50,0.00,,---,0.00,VWS V14.01,2013-08-27 17:50:00,
2013-08-27 11:55:00,71.5,50.2,29.95,SSE,165,9.0,12.0,47,0.00,,---,0.00,VWS V14.01,2013-08-27 17:55:00,
2013-08-27 12:00:00,71.5,47.2,29.95,East,96,6.0,8.0,42,0.00,,---,0.00,VWS V14.01,2013-08-27 18:00:00,
2013-08-27 12:05:00,71.0,49.2,29.95,SSE,159,6.0,7.0,46,0.00,,---,0.00,VWS V14.01,2013-08-27 18:05:00,
2013-08-27 12:10:00,71.2,47.0,29.95,SSE,154,8.0,8.0,42,0.00,,---,0.00,VWS V14.01,2013-08-27 18:10:00,
2013-08-27 12:15:00,70.8,47.8,29.95,South,175,3.0,7.0,44,0.00,,---,0.00,VWS V14.01,2013-08-27 18:15:00,
2013-08-27 12:21:00,71.8,49.9,29.94,SSE,168,11.0,11.0,46,0.00,,---,0.00,VWS V14.01,2013-08-27 18:21:00,
2013-08-27 12:26:00,71.8,48.7,29.94,SSE,164,7.0,7.0,44,0.00,,---,0.00,VWS V14.01,2013-08-27 18:26:00,
2013-08-27 12:31:00,71.3,48.9,29.94,SSE,164,3.0,4.0,45,0.00,,---,0.00,VWS V14.01,2013-08-27 18:31:00,
2013-08-27 12:36:00,71.2,47.6,29.94,SSE,164,5.0,5.0,43,0.00,,---,0.00,VWS V14.01,2013-08-27 18:36:00,
2013-08-27 12:41:00,71.2,49.4,29.94,South,179,3.0,4.0,46,0.00,,---,0.00,VWS V14.01,2013-08-27 18:41:00,
2013-08-27 12:46:00,71.5,47.8,29.94,SE,124,2.0,7.0,43,0.00,,---,0.00,VWS V14.01,2013-08-27 18:46:00,
2013-08-27 12:51:00,73.1,50.5,29.93,SSE,148,3.0,3.0,45,0.00,,---,0.00,VWS V14.01,2013-08-27 18:51:00,
2013-08-27 12:56:00,72.8,48.4,29.93,SE,127,6.0,7.0,42,0.00,,---,0.00,VWS V14.01,2013-08-27 18:56:00,
2013-08-27 13:01:00,73.4,47.6,29.93,East,90,2.0,8.0,40,0.00,,---,0.00,VWS V14.01,2013-08-27 19:01:00,
2013-08-27 13:06:00,72.6,47.6,29.92,East,86,3.0,6.0,41,0.00,,---,0.00,VWS V14.01,2013-08-27 19:06:00,
2013-08-27 13:11:00,73.1,46.0,29.92,East,94,5.0,8.0,38,0.00,,---,0.00,VWS V14.01,2013-08-27 19:11:00,
2013-08-27 13:16:00,73.2,46.8,29.92,East,96,6.0,6.0,39,0.00,,---,0.00,VWS V14.01,2013-08-27 19:16:00,
2013-08-27 13:21:00,74.0,46.8,29.92,ESE,109,1.0,4.0,38,0.00,,---,0.00,VWS V14.01,2013-08-27 19:21:00,
2013-08-27 13:26:00,74.3,46.4,29.92,South,174,2.0,4.0,37,0.00,,---,0.00,VWS V14.01,2013-08-27 19:26:00,
2013-08-27 13:31:00,74.3,44.1,29.92,East,92,8.0,9.0,34,0.00,,---,0.00,VWS V14.01,2013-08-27 19:31:00,
2013-08-27 13:36:00,73.3,41.7,29.92,ESE,113,2.0,4.0,32,0.00,,---,0.00,VWS V14.01,2013-08-27 19:36:00,
2013-08-27 13:41:00,73.4,41.8,29.92,SSW,211,5.0,5.0,32,0.00,,---,0.00,VWS V14.01,2013-08-27 19:41:00,
2013-08-27 13:46:00,73.2,39.9,29.92,East,98,0.0,8.0,30,0.00,,---,0.00,VWS V14.01,2013-08-27 19:46:00,
2013-08-27 13:51:00,72.9,40.5,29.92,East,87,1.0,3.0,31,0.00,,---,0.00,VWS V14.01,2013-08-27 19:51:00,
2013-08-27 13:56:00,74.8,42.2,29.91,East,96,11.0,13.0,31,0.00,,---,0.00,VWS V14.01,2013-08-27 19:56:00,
2013-08-27 14:01:00,74.6,42.0,29.92,East,88,6.0,6.0,31,0.00,,---,0.00,VWS V14.01,2013-08-27 20:01:00,
2013-08-27 14:06:00,74.4,41.0,29.91,ENE,78,5.0,6.0,30,0.00,,---,0.00,VWS V14.01,2013-08-27 20:06:00,
2013-08-27 14:11:00,73.6,41.1,29.91,East,92,2.0,7.0,31,0.00,,---,0.00,VWS V14.01,2013-08-27 20:11:00,
2013-08-27 14:16:00,73.3,41.7,29.91,ESE,106,5.0,6.0,32,0.00,,---,0.00,VWS V14.01,2013-08-27 20:16:00,
2013-08-27 14:21:00,72.9,39.7,29.91,East,98,6.0,6.0,30,0.00,,---,0.00,VWS V14.01,2013-08-27 20:21:00,
2013-08-27 14:26:00,73.4,45.6,29.91,ENE,69,1.0,7.0,37,0.00,,---,0.00,VWS V14.01,2013-08-27 20:26:00,
2013-08-27 14:31:00,73.8,40.5,29.90,SE,125,0.0,2.0,30,0.00,,---,0.00,VWS V14.01,2013-08-27 20:31:00,
2013-08-27 14:36:00,73.8,42.1,29.90,SE,125,1.0,1.0,32,0.00,,---,0.00,VWS V14.01,2013-08-27 20:36:00,
2013-08-27 14:41:00,73.7,41.2,29.90,SSW,194,7.0,7.0,31,0.00,,---,0.00,VWS V14.01,2013-08-27 20:41:00,
2013-08-27 14:46:00,73.6,37.6,29.90,SSW,207,0.0,1.0,27,0.00,,---,0.00,VWS V14.01,2013-08-27 20:46:00,
2013-08-27 14:51:00,73.8,39.6,29.90,South,170,14.0,14.0,29,0.00,,---,0.00,VWS V14.01,2013-08-27 20:51:00,
2013-08-27 14:56:00,74.2,41.7,29.90,South,186,8.0,8.0,31,0.00,,---,0.00,VWS V14.01,2013-08-27 20:56:00,
2013-08-27 15:01:00,75.1,39.8,29.90,South,189,15.0,15.0,28,0.00,,---,0.00,VWS V14.01,2013-08-27 21:01:00,
2013-08-27 15:06:00,74.6,41.2,29.89,South,180,7.0,7.0,30,0.00,,---,0.00,VWS V14.01,2013-08-27 21:06:00,
2013-08-27 15:12:00,74.6,38.5,29.89,South,173,7.0,7.0,27,0.00,,---,0.00,VWS V14.01,2013-08-27 21:12:00,
2013-08-27 15:17:00,76.1,39.7,29.89,SSW,195,4.0,7.0,27,0.00,,---,0.00,VWS V14.01,2013-08-27 21:17:00,
2013-08-27 15:22:00,76.6,40.2,29.89,SSE,147,4.0,8.0,27,0.00,,---,0.00,VWS V14.01,2013-08-27 21:22:00,
2013-08-27 15:28:00,76.6,36.1,29.88,SW,232,4.0,8.0,23,0.00,,---,0.00,VWS V14.01,2013-08-27 21:28:00,
2013-08-27 15:33:00,76.7,38.3,29.88,SW,232,2.0,3.0,25,0.00,,---,0.00,VWS V14.01,2013-08-27 21:33:00,
2013-08-27 15:39:00,77.5,38.9,29.88,SSW,209,10.0,13.0,25,0.00,,---,0.00,VWS V14.01,2013-08-27 21:39:00,
2013-08-27 15:44:00,77.3,36.7,29.88,SSW,201,13.0,16.0,23,0.00,,---,0.00,VWS V14.01,2013-08-27 21:44:00,
2013-08-27 15:49:00,76.4,35.9,29.88,South,185,3.0,4.0,23,0.00,,---,0.00,VWS V14.01,2013-08-27 21:49:00,
2013-08-27 15:54:00,75.7,40.3,29.87,SE,126,3.0,4.0,28,0.00,,---,0.00,VWS V14.01,2013-08-27 21:54:00,
2013-08-27 15:59:00,77.2,38.7,29.87,SW,216,7.0,9.0,25,0.00,,---,0.00,VWS V14.01,2013-08-27 21:59:00,
2013-08-27 16:04:00,76.9,37.4,29.87,SSE,158,0.0,2.0,24,0.00,,---,0.00,VWS V14.01,2013-08-27 22:04:00,
2013-08-27 16:09:00,75.8,37.5,29.87,East,83,0.0,3.0,25,0.00,,---,0.00,VWS V14.01,2013-08-27 22:09:00,
2013-08-27 16:14:00,75.6,38.3,29.87,East,84,5.0,7.0,26,0.00,,---,0.00,VWS V14.01,2013-08-27 22:14:00,
2013-08-27 16:19:00,75.6,39.3,29.86,NE,54,6.0,7.0,27,0.00,,---,0.00,VWS V14.01,2013-08-27 22:19:00,
2013-08-27 16:24:00,75.5,43.6,29.86,NE,54,3.0,5.0,32,0.00,,---,0.00,VWS V14.01,2013-08-27 22:24:00,
2013-08-27 16:29:00,75.5,39.2,29.86,NE,54,1.0,1.0,27,0.00,,---,0.00,VWS V14.01,2013-08-27 22:29:00,
2013-08-27 16:34:00,75.8,36.5,29.86,ESE,111,0.0,3.0,24,0.00,,---,0.00,VWS V14.01,2013-08-27 22:34:00,
2013-08-27 16:39:00,75.7,40.3,29.85,East,88,0.0,0.0,28,0.00,,---,0.00,VWS V14.01,2013-08-27 22:39:00,
2013-08-27 16:44:00,76.6,40.2,29.85,East,88,2.0,2.0,27,0.00,,---,0.00,VWS V14.01,2013-08-27 22:44:00,
2013-08-27 16:49:00,76.4,41.8,29.85,ENE,58,5.0,5.0,29,0.00,,---,0.00,VWS V14.01,2013-08-27 22:49:00,
2013-08-27 16:54:00,75.7,39.4,29.85,NE,44,0.0,1.0,27,0.00,,---,0.00,VWS V14.01,2013-08-27 22:54:00,
2013-08-27 16:59:00,76.1,39.7,29.84,NE,44,0.0,0.0,27,0.00,,---,0.00,VWS V14.01,2013-08-27 22:59:00,
2013-08-27 17:04:00,76.3,38.9,29.84,ESE,122,3.0,3.0,26,0.00,,---,0.00,VWS V14.01,2013-08-27 23:04:00,
2013-08-27 17:09:00,76.9,38.4,29.84,SSE,165,1.0,5.0,25,0.00,,---,0.00,VWS V14.01,2013-08-27 23:09:00,
2013-08-27 17:14:00,77.1,40.6,29.84,WSW,244,6.0,6.0,27,0.00,,---,0.00,VWS V14.01,2013-08-27 23:14:00,
2013-08-27 17:19:00,76.6,46.9,29.84,SW,217,14.0,17.0,35,0.00,,---,0.00,VWS V14.01,2013-08-27 23:19:00,
2013-08-27 17:24:00,74.9,49.0,29.84,SW,224,14.0,19.0,40,0.00,,---,0.00,VWS V14.01,2013-08-27 23:24:00,
2013-08-27 17:29:00,73.1,48.7,29.84,SW,217,17.0,19.0,42,0.00,,---,0.00,VWS V14.01,2013-08-27 23:29:00,
2013-08-27 17:34:00,71.5,48.5,29.84,WSW,244,10.0,13.0,44,0.00,,---,0.00,VWS V14.01,2013-08-27 23:34:00,
2013-08-27 17:39:00,70.4,48.1,29.84,SW,233,13.0,18.0,45,0.00,,---,0.00,VWS V14.01,2013-08-27 23:39:00,
2013-08-27 17:44:00,69.7,48.0,29.84,SW,223,13.0,14.0,46,0.00,,---,0.00,VWS V14.01,2013-08-27 23:44:00,
2013-08-27 17:49:00,69.1,48.0,29.85,WSW,239,17.0,17.0,47,0.00,,---,0.00,VWS V14.01,2013-08-27 23:49:00,
2013-08-27 17:54:00,68.7,47.7,29.85,WSW,250,11.0,11.0,47,0.00,,---,0.00,VWS V14.01,2013-08-27 23:54:00,
2013-08-27 17:59:00,68.4,48.0,29.85,SW,223,13.0,13.0,48,0.00,,---,0.00,VWS V14.01,2013-08-27 23:59:00,
2013-08-27 18:04:00,68.1,47.7,29.85,South,191,12.0,12.0,48,0.00,,---,0.00,VWS V14.01,2013-08-28 00:04:00,
2013-08-27 18:09:00,67.9,48.1,29.86,SW,228,10.0,11.0,49,0.00,,---,0.00,VWS V14.01,2013-08-28 00:09:00,
2013-08-27 18:14:00,67.8,48.0,29.86,SW,225,4.0,5.0,49,0.00,,---,0.00,VWS V14.01,2013-08-28 00:14:00,
2013-08-27 18:19:00,67.6,49.9,29.86,SW,232,11.0,12.0,53,0.00,,---,0.00,VWS V14.01,2013-08-28 00:19:00,
2013-08-27 18:24:00,66.8,49.1,29.86,SW,221,10.0,14.0,53,0.00,,---,0.00,VWS V14.01,2013-08-28 00:24:00,
2013-08-27 18:30:00,66.7,47.5,29.86,SW,232,6.0,6.0,50,0.00,,---,0.00,VWS V14.01,2013-08-28 00:30:00,
2013-08-27 18:35:00,66.9,48.2,29.86,SW,232,0.0,3.0,51,0.00,,---,0.00,VWS V14.01,2013-08-28 00:35:00,
2013-08-27 18:40:00,67.0,47.8,29.86,SW,232,4.0,5.0,50,0.00,,---,0.00,VWS V14.01,2013-08-28 00:40:00,
2013-08-27 18:45:00,67.0,47.8,29.86,WNW,298,7.0,9.0,50,0.00,,---,0.00,VWS V14.01,2013-08-28 00:45:00,
2013-08-27 18:50:00,67.1,47.3,29.86,NW,309,6.0,10.0,49,0.00,,---,0.00,VWS V14.01,2013-08-28 00:50:00,
2013-08-27 18:55:00,67.0,47.8,29.85,NW,315,5.0,6.0,50,0.00,,---,0.00,VWS V14.01,2013-08-28 00:55:00,
2013-08-27 19:00:00,66.4,48.8,29.85,NW,321,3.0,5.0,53,0.00,,---,0.00,VWS V14.01,2013-08-28 01:00:00,
2013-08-27 19:05:00,65.8,48.7,29.85,NW,321,2.0,2.0,54,0.00,,---,0.00,VWS V14.01,2013-08-28 01:05:00,
2013-08-27 19:10:00,65.4,47.3,29.84,NW,321,3.0,4.0,52,0.00,,---,0.00,VWS V14.01,2013-08-28 01:10:00,
2013-08-27 19:15:00,65.4,47.3,29.84,NW,321,5.0,5.0,52,0.00,,---,0.00,VWS V14.01,2013-08-28 01:15:00,
2013-08-27 19:20:00,65.4,47.3,29.85,WNW,293,6.0,8.0,52,0.00,,---,0.00,VWS V14.01,2013-08-28 01:20:00,
2013-08-27 19:25:00,65.4,47.8,29.85,West,268,4.0,4.0,53,0.00,,---,0.00,VWS V14.01,2013-08-28 01:25:00,
2013-08-27 19:30:00,65.2,47.7,29.85,West,272,0.0,1.0,53,0.00,,---,0.00,VWS V14.01,2013-08-28 01:30:00,
2013-08-27 19:35:00,64.9,47.9,29.85,West,272,0.0,0.0,54,0.00,,---,0.00,VWS V14.01,2013-08-28 01:35:00,
2013-08-27 19:40:00,64.7,47.7,29.86,West,272,0.0,0.0,54,0.00,,---,0.00,VWS V14.01,2013-08-28 01:40:00,
2013-08-27 19:45:00,64.5,48.0,29.86,West,271,2.0,4.0,55,0.00,,---,0.00,VWS V14.01,2013-08-28 01:45:00,
2013-08-27 19:50:00,64.1,47.6,29.86,West,265,2.0,5.0,55,0.00,,---,0.00,VWS V14.01,2013-08-28 01:50:00,
2013-08-27 19:55:00,64.0,48.0,29.86,West,265,4.0,5.0,56,0.00,,---,0.00,VWS V14.01,2013-08-28 01:55:00,
2013-08-27 20:00:00,63.5,48.5,29.87,West,269,5.0,6.0,58,0.00,,---,0.00,VWS V14.01,2013-08-28 02:00:00,
2013-08-27 20:05:00,63.1,47.6,29.87,West,269,0.0,0.0,57,0.00,,---,0.00,VWS V14.01,2013-08-28 02:05:00,
2013-08-27 20:10:00,63.1,48.1,29.87,West,269,0.0,0.0,58,0.00,,---,0.00,VWS V14.01,2013-08-28 02:10:00,
2013-08-27 20:15:00,63.0,47.5,29.88,West,269,2.0,2.0,57,0.00,,---,0.00,VWS V14.01,2013-08-28 02:15:00,
2013-08-27 20:20:00,63.0,48.0,29.88,West,269,0.0,0.0,58,0.00,,---,0.00,VWS V14.01,2013-08-28 02:20:00,
2013-08-27 20:25:00,62.9,48.4,29.88,West,269,2.0,3.0,59,0.00,,---,0.00,VWS V14.01,2013-08-28 02:25:00,
2013-08-27 20:30:00,62.1,47.6,29.89,West,269,0.0,3.0,59,0.00,,---,0.00,VWS V14.01,2013-08-28 02:30:00,
2013-08-27 20:35:00,61.8,47.3,29.90,West,269,1.0,2.0,59,0.00,,---,0.00,VWS V14.01,2013-08-28 02:35:00,
2013-08-27 20:40:00,61.8,47.3,29.90,West,269,2.0,3.0,59,0.00,,---,0.00,VWS V14.01,2013-08-28 02:40:00,
2013-08-27 20:45:00,61.8,47.3,29.90,West,267,2.0,5.0,59,0.00,,---,0.00,VWS V14.01,2013-08-28 02:45:00,
2013-08-27 20:50:00,61.8,47.3,29.90,West,267,0.0,7.0,59,0.00,,---,0.00,VWS V14.01,2013-08-28 02:50:00,
2013-08-27 20:55:00,61.7,47.2,29.91,West,267,1.0,2.0,59,0.00,,---,0.00,VWS V14.01,2013-08-28 02:55:00,
2013-08-27 21:00:00,61.6,47.2,29.91,West,267,0.0,0.0,59,0.00,,---,0.00,VWS V14.01,2013-08-28 03:00:00,
2013-08-27 21:05:00,61.6,46.7,29.91,West,267,4.0,4.0,58,0.00,,---,0.00,VWS V14.01,2013-08-28 03:05:00,
2013-08-27 21:10:00,61.6,47.2,29.91,West,267,0.0,0.0,59,0.00,,---,0.00,VWS V14.01,2013-08-28 03:10:00,
2013-08-27 21:15:00,61.4,47.4,29.91,West,267,0.0,1.0,60,0.00,,---,0.00,VWS V14.01,2013-08-28 03:15:00,
2013-08-27 21:20:00,61.3,47.3,29.91,West,267,0.0,2.0,60,0.00,,---,0.00,VWS V14.01,2013-08-28 03:20:00,
2013-08-27 21:25:00,60.9,47.4,29.91,West,267,0.0,1.0,61,0.00,,---,0.00,VWS V14.01,2013-08-28 03:25:00,
2013-08-27 21:30:00,60.5,47.0,29.91,West,267,2.0,2.0,61,0.00,,---,0.00,VWS V14.01,2013-08-28 03:30:00,
2013-08-27 21:35:00,60.4,46.9,29.91,West,267,2.0,3.0,61,0.00,,---,0.00,VWS V14.01,2013-08-28 03:35:00,
2013-08-27 21:40:00,60.2,46.7,29.91,West,267,0.0,4.0,61,0.00,,---,0.00,VWS V14.01,2013-08-28 03:40:00,
2013-08-27 21:45:00,59.9,46.4,29.91,West,267,1.0,2.0,61,0.00,,---,0.00,VWS V14.01,2013-08-28 03:45:00,
2013-08-27 21:50:00,59.8,46.8,29.91,West,267,0.0,2.0,62,0.00,,---,0.00,VWS V14.01,2013-08-28 03:50:00,
2013-08-27 21:55:00,59.7,46.7,29.91,West,272,0.0,1.0,62,0.00,,---,0.00,VWS V14.01,2013-08-28 03:55:00,
2013-08-27 22:01:00,59.6,46.6,29.91,West,272,3.0,3.0,62,0.00,,---,0.00,VWS V14.01,2013-08-28 04:01:00,
2013-08-27 22:06:00,59.2,46.6,29.91,West,272,0.0,2.0,63,0.00,,---,0.00,VWS V14.01,2013-08-28 04:06:00,
2013-08-27 22:11:00,58.5,46.4,29.91,West,272,1.0,3.0,64,0.00,,---,0.00,VWS V14.01,2013-08-28 04:11:00,
2013-08-27 22:14:00,58.0,46.3,29.91,West,272,5.0,5.0,65,0.00,,---,0.00,VWS V14.01,2013-08-28 04:14:00,
2013-08-27 22:19:00,56.8,46.0,29.91,West,272,5.0,6.0,67,0.00,,---,0.00,VWS V14.01,2013-08-28 04:19:00,
2013-08-27 22:25:00,55.2,46.0,29.90,West,273,4.0,5.0,71,0.00,,---,0.00,VWS V14.01,2013-08-28 04:25:00,
2013-08-27 22:30:00,54.1,45.7,29.91,West,273,5.0,5.0,73,0.00,,---,0.00,VWS V14.01,2013-08-28 04:30:00,
2013-08-27 22:35:00,53.4,45.7,29.91,West,273,5.0,6.0,75,0.00,,---,0.00,VWS V14.01,2013-08-28 04:35:00,
2013-08-27 22:40:00,53.0,45.7,29.91,West,276,5.0,6.0,76,0.00,,---,0.00,VWS V14.01,2013-08-28 04:40:00,
2013-08-27 22:45:00,52.7,45.7,29.91,West,277,7.0,8.0,77,0.00,,---,0.00,VWS V14.01,2013-08-28 04:45:00,
2013-08-27 22:50:00,52.4,45.8,29.91,West,277,7.0,7.0,78,0.00,,---,0.00,VWS V14.01,2013-08-28 04:50:00,
2013-08-27 22:55:00,52.6,46.0,29.91,West,277,6.0,8.0,78,0.00,,---,0.00,VWS V14.01,2013-08-28 04:55:00,
2013-08-27 23:00:00,52.6,46.0,29.91,West,277,3.0,5.0,78,0.00,,---,0.00,VWS V14.01,2013-08-28 05:00:00,
2013-08-27 23:05:00,52.3,45.7,29.92,West,277,4.0,4.0,78,0.00,,---,0.00,VWS V14.01,2013-08-28 05:05:00,
2013-08-27 23:10:00,52.1,45.8,29.91,West,277,8.0,8.0,79,0.00,,---,0.00,VWS V14.01,2013-08-28 05:10:00,
2013-08-27 23:15:00,51.8,45.5,29.91,West,277,9.0,9.0,79,0.00,,---,0.00,VWS V14.01,2013-08-28 05:15:00,
2013-08-27 23:20:00,51.8,45.8,29.91,West,278,8.0,8.0,80,0.00,,---,0.00,VWS V14.01,2013-08-28 05:20:00,
2013-08-27 23:25:00,51.8,45.8,29.91,West,278,7.0,8.0,80,0.00,,---,0.00,VWS V14.01,2013-08-28 05:25:00,
2013-08-27 23:30:00,51.7,45.7,29.92,West,279,8.0,9.0,80,0.00,,---,0.00,VWS V14.01,2013-08-28 05:30:00,
2013-08-27 23:35:00,51.7,45.7,29.92,WNW,283,10.0,10.0,80,0.00,,---,0.00,VWS V14.01,2013-08-28 05:35:00,
2013-08-27 23:40:00,51.3,45.3,29.92,NNW,338,7.0,10.0,80,0.00,,---,0.00,VWS V14.01,2013-08-28 05:40:00,
2013-08-27 23:45:00,51.3,45.7,29.92,NNW,339,3.0,5.0,81,0.00,,---,0.00,VWS V14.01,2013-08-28 05:45:00,
2013-08-27 23:50:00,51.4,45.8,29.92,NNW,339,3.0,3.0,81,0.00,,---,0.00,VWS V14.01,2013-08-28 05:50:00,
2013-08-27 23:55:00,51.4,45.8,29.92,NNW,339,0.0,0.0,81,0.00,,---,0.00,VWS V14.01,2013-08-28 05:55:00,